Edmond, Kansas
Current Conditions -  °F | °C
As of 11:53 AM on Friday 24 Oct 2014 (Local Time) from KHLC Reporting Station
Clear Clear  
Wind Chill: 77°   Ceiling: Unl
Heat Index: 78°   Visibility: 10mi
Dew Point: 54°   Wind: 5mph
Humidity: 45%   Direction: 270°W
Pressure: 30.03"   Gusts: NA
Location:  39.68°N, 99.7571°W
Report Text: KHLC 241653Z AUTO 27004KT 10SM CLR 25/12 A3003 RMK AO2 SLP153 T02500122
Loading
Personal Weather Stations






























Interactive Weather Map
Tropical Storm Tracking
New forecast layout! Learn more

10-Day Weather Forecast

Advertisements
Track Severe Weather on mobile